Time;durP1;ratioP1;P1;durP2;ratioP2;P2;SDS_P1;SDS_P2;PMS_P1;PMS_P2;Temp;Humidity;BMP_temperature;BMP_pressure;BME280_temperature;BME280_humidity;BME280_pressure;Samples;Min_cycle;Max_cycle;Signal;HPM_P1;HPM_P2
2022/12/14 00:01:26;;;;;;;39.22;18.15;;;;;;;-1.94;100.00;100236.69;5008597;28;20057;-74
2022/12/14 00:03:53;;;;;;;39.63;20.10;;;;;;;-1.96;100.00;100233.53;5010737;28;20045;-70
2022/12/14 00:06:25;;;;;;;40.90;19.60;;;;;;;-1.95;100.00;100230.47;5006122;28;20088;-74
2022/12/14 00:08:54;;;;;;;38.22;18.17;;;;;;;-1.96;100.00;100211.84;5002513;28;20056;-71
2022/12/14 00:11:21;;;;;;;41.28;18.15;;;;;;;-1.97;100.00;100207.50;5008196;28;20372;-72
2022/12/14 00:13:53;;;;;;;37.28;19.25;;;;;;;-1.93;100.00;100217.38;5005535;28;20037;-73
2022/12/14 00:16:20;;;;;;;40.35;18.00;;;;;;;-1.96;100.00;100209.13;5006917;28;20126;-72
2022/12/14 00:18:52;;;;;;;39.45;17.85;;;;;;;-1.94;100.00;100201.44;5005539;28;20049;-73
2022/12/14 00:21:19;;;;;;;42.15;19.08;;;;;;;-1.97;100.00;100200.19;5002124;28;20045;-73
2022/12/14 00:23:47;;;;;;;36.15;16.40;;;;;;;-1.94;100.00;100201.44;5004471;28;20192;-70
2022/12/14 00:26:17;;;;;;;37.60;16.55;;;;;;;-1.95;100.00;100202.56;5004971;28;20045;-75
2022/12/14 00:28:45;;;;;;;37.47;17.45;;;;;;;-2.01;100.00;100206.56;5004571;28;20498;-70
2022/12/14 00:31:12;;;;;;;37.65;17.08;;;;;;;-2.04;100.00;100189.06;5007555;28;20068;-73
2022/12/14 00:33:39;;;;;;;41.20;17.08;;;;;;;-2.05;100.00;100186.66;5014793;28;20045;-71
2022/12/14 00:36:07;;;;;;;41.97;19.67;;;;;;;-2.09;100.00;100183.03;5009737;28;20057;-73
2022/12/14 00:38:35;;;;;;;37.10;17.00;;;;;;;-2.11;100.00;100185.25;5009063;28;20060;-74
2022/12/14 00:41:01;;;;;;;39.63;17.08;;;;;;;-2.12;100.00;100181.78;5005149;28;20526;-74
2022/12/14 00:43:28;;;;;;;34.60;16.50;;;;;;;-2.13;100.00;100184.81;5008177;28;20049;-73
2022/12/14 00:45:55;;;;;;;34.70;16.55;;;;;;;-2.15;100.00;100190.53;5012423;28;20052;-74
2022/12/14 00:48:23;;;;;;;35.90;16.20;;;;;;;-2.17;100.00;100171.09;5007046;28;20620;-72
2022/12/14 00:50:52;;;;;;;39.35;17.13;;;;;;;-2.18;100.00;100171.41;5011290;28;20855;-73
2022/12/14 00:53:19;;;;;;;32.78;15.75;;;;;;;-2.20;100.00;100171.75;5006212;28;20099;-74
2022/12/14 00:55:47;;;;;;;33.67;15.30;;;;;;;-2.20;100.00;100174.44;5012796;28;20053;-74
2022/12/14 00:58:18;;;;;;;32.65;15.38;;;;;;;-2.19;100.00;100183.38;5006701;28;20056;-74
2022/12/14 01:00:46;;;;;;;40.13;16.00;;;;;;;-2.19;100.00;100170.66;5009017;28;20056;-72
2022/12/14 01:03:13;;;;;;;36.20;15.73;;;;;;;-2.15;100.00;100168.06;5012937;28;20059;-73
2022/12/14 01:05:40;;;;;;;35.10;16.17;;;;;;;-2.13;100.00;100161.19;5007283;28;20048;-73
2022/12/14 01:08:07;;;;;;;35.33;15.30;;;;;;;-2.19;100.00;100153.56;5010187;28;20049;-72
2022/12/14 01:10:38;;;;;;;33.97;15.00;;;;;;;-2.12;100.00;100151.97;5012596;28;20049;-72
2022/12/14 01:13:05;;;;;;;33.25;14.40;;;;;;;-2.12;100.00;100145.72;5008033;28;20049;-74
2022/12/14 01:15:34;;;;;;;32.63;15.18;;;;;;;-2.13;100.00;100155.75;5014251;28;20037;-73
2022/12/14 01:18:00;;;;;;;34.83;15.32;;;;;;;-2.15;100.00;100141.75;5014777;28;20441;-72
2022/12/14 01:20:27;;;;;;;33.42;15.60;;;;;;;-2.16;100.00;100153.69;5009366;28;20060;-73
2022/12/14 01:22:55;;;;;;;31.75;14.15;;;;;;;-2.16;100.00;100159.13;5015363;28;20056;-73
2022/12/14 01:25:21;;;;;;;29.38;14.55;;;;;;;-2.14;100.00;100156.91;5012528;28;20092;-72
2022/12/14 01:27:49;;;;;;;31.55;13.30;;;;;;;-2.22;100.00;100137.97;5040704;28;20053;-73
2022/12/14 01:30:18;;;;;;;36.47;14.45;;;;;;;-2.15;100.00;100154.50;5009191;28;20086;-72
2022/12/14 01:32:45;;;;;;;33.63;15.15;;;;;;;-2.15;100.00;100160.72;5008858;28;20805;-74
2022/12/14 01:35:11;;;;;;;31.40;13.02;;;;;;;-2.16;100.00;100153.69;5012352;28;20673;-74
2022/12/14 01:37:38;;;;;;;34.35;14.68;;;;;;;-2.17;100.00;100157.53;5012228;28;20068;-74
2022/12/14 01:40:05;;;;;;;29.15;13.48;;;;;;;-2.18;100.00;100153.25;5010775;28;20049;-75
2022/12/14 01:42:34;;;;;;;28.25;12.55;;;;;;;-2.19;100.00;100131.91;5009673;28;20093;-74
2022/12/14 01:45:01;;;;;;;29.85;13.43;;;;;;;-2.22;100.00;100132.53;5006802;28;20045;-73
2022/12/14 01:47:43;;;;;;;32.10;13.15;;;;;;;-2.22;100.00;100133.34;5007458;28;20899;-73
2022/12/14 01:50:18;;;;;;;28.63;13.20;;;;;;;-2.23;100.00;100120.91;5008980;28;20049;-71
2022/12/14 01:52:48;;;;;;;29.90;13.50;;;;;;;-2.24;100.00;100119.31;5009031;28;20439;-73
2022/12/14 01:55:23;;;;;;;32.83;13.75;;;;;;;-2.26;100.00;100120.78;5011179;28;20868;-71
2022/12/14 01:57:59;;;;;;;30.92;13.70;;;;;;;-2.27;100.00;100119.97;5008050;28;20884;-74
2022/12/14 02:00:26;;;;;;;34.58;14.52;;;;;;;-2.30;100.00;100114.44;5008105;28;20054;-72
2022/12/14 02:03:03;;;;;;;30.63;12.82;;;;;;;-2.29;100.00;100122.22;5007239;28;20990;-73
2022/12/14 02:05:33;;;;;;;33.28;14.55;;;;;;;-2.30;100.00;100115.19;5016432;28;20056;-72
2022/12/14 02:08:00;;;;;;;31.08;13.02;;;;;;;-2.29;100.00;100111.41;5011423;28;20049;-73
2022/12/14 02:10:28;;;;;;;31.45;13.35;;;;;;;-2.29;100.00;100103.25;5008273;28;20050;-73
2022/12/14 02:13:04;;;;;;;27.48;12.65;;;;;;;-2.36;100.00;100100.28;5008030;28;20049;-72
2022/12/14 02:15:32;;;;;;;27.10;11.63;;;;;;;-2.34;100.00;100091.78;5007835;28;20049;-71
2022/12/14 02:18:02;;;;;;;29.73;12.27;;;;;;;-2.37;100.00;100084.34;5006985;28;20053;-71
2022/12/14 02:20:38;;;;;;;30.52;12.65;;;;;;;-2.44;100.00;100082.13;5006072;28;20119;-72
2022/12/14 02:23:15;;;;;;;28.10;12.27;;;;;;;-2.42;100.00;100079.91;5008166;28;20050;-71
2022/12/14 02:26:07;;;;;;;28.73;12.70;;;;;;;-2.43;100.00;100077.50;5009798;28;20045;-71
2022/12/14 02:29:02;;;;;;;32.63;13.32;;;;;;;-2.46;100.00;100080.88;5017340;28;20046;-70
2022/12/14 02:31:53;;;;;;;26.27;11.00;;;;;;;-2.52;100.00;100069.44;5028286;28;20068;-71
2022/12/14 02:34:25;;;;;;;28.95;11.68;;;;;;;-2.48;100.00;100080.41;5030764;28;20056;-70
2022/12/14 02:37:01;;;;;;;29.17;12.43;;;;;;;-2.48;100.00;100086.63;5026972;28;20052;-71
2022/12/14 02:39:48;;;;;;;31.80;13.48;;;;;;;-2.47;100.00;100074.66;5030434;28;20041;-70
2022/12/14 02:42:25;;;;;;;30.10;12.40;;;;;;;-2.46;100.00;100067.34;5032048;28;20049;-73
2022/12/14 02:45:05;;;;;;;34.05;13.23;;;;;;;-2.47;100.00;100061.09;5027223;28;20048;-71
2022/12/14 02:47:53;;;;;;;27.40;11.93;;;;;;;-2.51;100.00;100054.75;5030164;28;20072;-71
2022/12/14 02:50:34;;;;;;;28.75;12.75;;;;;;;-2.53;100.00;100057.03;5032795;28;20048;-71
2022/12/14 02:53:09;;;;;;;30.40;12.80;;;;;;;-2.55;100.00;100050.31;5030249;28;20049;-71
2022/12/14 02:56:05;;;;;;;30.05;11.90;;;;;;;-2.56;100.00;100041.41;5027776;28;20048;-72
2022/12/14 02:58:37;;;;;;;27.60;11.57;;;;;;;-2.58;100.00;100043.66;5030701;28;20059;-70
2022/12/14 03:01:10;;;;;;;31.38;13.10;;;;;;;-2.60;100.00;100034.28;5031745;28;20054;-70
2022/12/14 03:03:37;;;;;;;34.30;14.05;;;;;;;-2.67;100.00;100020.44;5028829;28;20060;-70
2022/12/14 03:06:15;;;;;;;29.20;12.00;;;;;;;-2.65;100.00;100027.13;5027923;28;20053;-70
2022/12/14 03:08:45;;;;;;;36.92;13.52;;;;;;;-2.66;100.00;100028.25;5044279;28;20417;-71
2022/12/14 03:11:19;;;;;;;30.77;12.65;;;;;;;-2.66;100.00;100029.03;5028422;28;20057;-70
2022/12/14 03:13:53;;;;;;;32.28;12.20;;;;;;;-2.65;100.00;100021.69;5012499;28;20193;-70
2022/12/14 03:16:42;;;;;;;34.20;12.75;;;;;;;-2.63;100.00;100030.31;5043103;28;20072;-70
2022/12/14 03:19:29;;;;;;;28.58;12.40;;;;;;;-2.60;100.00;100024.22;5036336;28;20053;-70
2022/12/14 03:22:05;;;;;;;29.27;11.52;;;;;;;-2.59;100.00;100014.19;5029560;28;20049;-70
2022/12/14 03:24:41;;;;;;;31.73;12.90;;;;;;;-2.59;100.00;100015.00;5015786;28;20495;-69
2022/12/14 03:27:31;;;;;;;31.77;12.52;;;;;;;-2.58;100.00;100015.75;5023617;28;20561;-71
2022/12/14 03:30:04;;;;;;;31.65;13.07;;;;;;;-2.60;100.00;100015.31;5023320;28;20057;-70
2022/12/14 03:32:34;;;;;;;28.52;12.02;;;;;;;-2.57;100.00;100011.94;5017931;28;20140;-70
2022/12/14 03:35:13;;;;;;;27.13;12.63;;;;;;;-2.58;100.00;100000.31;5026645;28;20053;-71
2022/12/14 03:37:48;;;;;;;27.17;11.30;;;;;;;-2.58;100.00;99994.91;5026619;28;20092;-70
2022/12/14 03:40:36;;;;;;;29.20;10.85;;;;;;;-2.57;100.00;99996.47;5044877;28;20132;-72
2022/12/14 03:43:31;;;;;;;30.17;12.23;;;;;;;-2.56;100.00;100002.69;5028459;28;20060;-70
2022/12/14 03:46:19;;;;;;;28.88;12.40;;;;;;;-2.57;100.00;100004.59;5024803;28;20045;-70
2022/12/14 03:48:52;;;;;;;28.90;11.43;;;;;;;-2.58;100.00;99988.69;5031005;28;20053;-72
2022/12/14 03:51:37;;;;;;;27.58;11.20;;;;;;;-2.58;100.00;99986.78;5031794;28;20140;-71
2022/12/14 03:54:28;;;;;;;24.92;10.95;;;;;;;-2.57;100.00;99984.88;5027382;28;20156;-71
2022/12/14 03:57:07;;;;;;;30.08;12.00;;;;;;;-2.55;100.00;99980.69;5027734;28;20140;-71
2022/12/14 03:59:46;;;;;;;29.92;11.73;;;;;;;-2.53;100.00;99974.97;5041837;28;20136;-70
2022/12/14 04:02:24;;;;;;;29.55;11.07;;;;;;;-2.53;100.00;99967.63;5027836;28;20145;-73
2022/12/14 04:05:02;;;;;;;28.42;11.48;;;;;;;-2.54;100.00;99978.81;5022918;28;20132;-70
2022/12/14 04:07:35;;;;;;;26.05;11.23;;;;;;;-2.56;100.00;99971.00;5022941;28;20064;-72
2022/12/14 04:18:55;;;;;;;29.38;11.60;;;;;;;-2.53;100.00;99964.13;5032354;28;20041;-72
2022/12/14 04:18:55;;;;;;;28.40;10.70;;;;;;;-2.68;100.00;99946.53;5029635;28;20161;-68
2022/12/14 04:21:37;;;;;;;25.40;9.90;;;;;;;-2.52;100.00;99955.69;5032576;28;20491;-71
2022/12/14 04:27:03;;;;;;;;;;;;;;;-2.48;100.00;99961.22;5026532;28;20045;-70
2022/12/14 04:32:27;;;;;;;26.98;11.55;;;;;;;-2.43;100.00;99948.25;5029656;28;20057;-71
2022/12/14 04:35:01;;;;;;;29.48;10.48;;;;;;;-2.44;100.00;99952.09;5028189;28;20057;-71
2022/12/14 04:37:29;;;;;;;28.92;12.55;;;;;;;-2.44;100.00;99946.69;5030345;28;20084;-71
2022/12/14 04:40:04;;;;;;;30.80;12.13;;;;;;;-2.41;100.00;99956.88;5028198;28;20057;-71
2022/12/14 04:42:34;;;;;;;28.17;10.18;;;;;;;-2.36;100.00;99956.69;5039718;28;20045;-70
2022/12/14 04:45:08;;;;;;;26.50;11.90;;;;;;;-2.35;100.00;99954.75;5025733;28;20045;-70
2022/12/14 04:47:41;;;;;;;29.60;11.70;;;;;;;-2.35;100.00;99952.84;5024566;28;20049;-72
2022/12/14 04:50:11;;;;;;;26.52;9.88;;;;;;;-2.40;100.00;99949.53;5030464;28;20054;-70
2022/12/14 04:52:47;;;;;;;27.42;10.82;;;;;;;-2.37;100.00;99957.78;5033708;28;20701;-70
2022/12/14 04:55:39;;;;;;;30.83;11.55;;;;;;;-2.38;100.00;99953.50;5031810;28;20057;-71
2022/12/14 04:58:24;;;;;;;29.85;11.40;;;;;;;-2.39;100.00;99956.53;5031693;28;20049;-70
2022/12/14 05:01:10;;;;;;;25.85;10.98;;;;;;;-2.40;100.00;99946.84;5033017;28;20065;-71
2022/12/14 05:03:53;;;;;;;30.85;11.90;;;;;;;-2.44;100.00;99941.25;5029994;28;20669;-71
2022/12/14 05:06:31;;;;;;;27.13;10.63;;;;;;;-2.38;100.00;99939.16;5023437;28;20057;-71
2022/12/14 05:09:18;;;;;;;27.25;11.90;;;;;;;-2.38;100.00;99942.66;5030923;28;20135;-70
2022/12/14 05:12:05;;;;;;;25.60;9.00;;;;;;;-2.37;100.00;99938.81;5029480;28;20045;-70
2022/12/14 05:14:44;;;;;;;27.77;10.63;;;;;;;-2.38;100.00;99939.97;5033623;28;20041;-72
2022/12/14 05:17:11;;;;;;;25.85;10.52;;;;;;;-2.39;100.00;99932.97;5028770;28;20076;-70
2022/12/14 05:19:47;;;;;;;30.63;11.48;;;;;;;-2.40;100.00;99928.66;5030403;28;20057;-71
2022/12/14 05:22:15;;;;;;;26.67;11.25;;;;;;;-2.40;100.00;99923.22;5035394;28;20078;-72
2022/12/14 05:24:41;;;;;;;27.23;11.50;;;;;;;-2.40;100.00;99917.03;5029126;28;20057;-71
2022/12/14 05:27:08;;;;;;;32.40;12.23;;;;;;;-2.40;100.00;99904.25;5031596;28;20057;-72
2022/12/14 05:29:34;;;;;;;27.73;10.60;;;;;;;-2.40;100.00;99898.84;5036885;28;20045;-68
2022/12/14 05:32:01;;;;;;;25.05;10.48;;;;;;;-2.41;100.00;99897.28;5030835;28;20045;-72
2022/12/14 05:34:28;;;;;;;30.05;10.95;;;;;;;-2.41;100.00;99893.75;5030921;28;20829;-70
2022/12/14 05:36:54;;;;;;;28.98;11.27;;;;;;;-2.41;100.00;99894.56;5052445;28;20054;-73
2022/12/14 05:39:21;;;;;;;30.52;11.65;;;;;;;-2.41;100.00;99889.16;5032915;28;20049;-71
2022/12/14 05:41:47;;;;;;;29.45;12.00;;;;;;;-2.43;100.00;99885.97;5030060;28;20053;-70
2022/12/14 05:44:14;;;;;;;26.77;10.80;;;;;;;-2.39;100.00;99884.19;5034471;28;20044;-69
2022/12/14 05:46:40;;;;;;;28.75;11.38;;;;;;;-2.37;100.00;99881.94;5022862;28;20836;-70
2022/12/14 05:49:07;;;;;;;36.78;12.32;;;;;;;-2.34;100.00;99881.28;5030667;28;20057;-70
2022/12/14 05:51:33;;;;;;;30.30;11.68;;;;;;;-2.33;100.00;99877.44;5029709;28;20049;-69
2022/12/14 05:54:00;;;;;;;28.83;11.55;;;;;;;-2.31;100.00;99872.50;5029814;28;20099;-70
2022/12/14 05:56:26;;;;;;;27.98;11.30;;;;;;;-2.32;100.00;99857.38;5019510;28;20057;-70
2022/12/14 05:58:53;;;;;;;32.63;12.35;;;;;;;-2.31;100.00;99867.06;5030336;28;20061;-71
2022/12/14 06:01:19;;;;;;;29.63;11.93;;;;;;;-2.31;100.00;99867.06;5028034;28;20053;-70
2022/12/14 06:03:46;;;;;;;30.83;11.85;;;;;;;-2.29;100.00;99864.84;5031047;28;20077;-70
2022/12/14 06:06:13;;;;;;;29.50;12.70;;;;;;;-2.35;100.00;99854.50;5022790;28;20077;-70
2022/12/14 06:08:43;;;;;;;33.28;15.50;;;;;;;-2.31;100.00;99864.34;5029916;28;20422;-72
2022/12/14 06:11:13;;;;;;;36.33;14.68;;;;;;;-2.28;100.00;99871.03;5029572;28;20053;-69
2022/12/14 06:13:41;;;;;;;29.27;12.52;;;;;;;-2.28;100.00;99873.72;5029710;28;20065;-69
2022/12/14 06:16:18;;;;;;;32.63;13.10;;;;;;;-2.30;100.00;99865.94;5024916;28;20063;-71
2022/12/14 06:18:48;;;;;;;31.50;11.63;;;;;;;-2.32;100.00;99854.66;5029500;28;20065;-70
2022/12/14 06:21:16;;;;;;;27.83;12.18;;;;;;;-2.32;100.00;99854.66;5061739;28;20057;-69
2022/12/14 06:23:43;;;;;;;28.95;11.07;;;;;;;-2.30;100.00;99844.25;5030170;28;20061;-71
2022/12/14 06:26:10;;;;;;;29.67;11.07;;;;;;;-2.31;100.00;99844.59;5028540;28;20041;-71
2022/12/14 06:28:37;;;;;;;27.83;11.05;;;;;;;-2.31;100.00;99839.97;5034048;28;20069;-71
2022/12/14 06:31:05;;;;;;;29.05;10.95;;;;;;;-2.30;100.00;99848.91;5031204;28;20194;-72
2022/12/14 06:33:33;;;;;;;27.75;11.23;;;;;;;-2.28;100.00;99847.44;5027412;28;20077;-71
2022/12/14 06:36:01;;;;;;;32.97;14.38;;;;;;;-2.32;100.00;99851.13;5030801;28;20033;-71
2022/12/14 06:38:28;;;;;;;30.65;12.45;;;;;;;-2.31;100.00;99844.59;5035874;28;20409;-74
2022/12/14 06:40:54;;;;;;;27.98;12.05;;;;;;;-2.33;100.00;99839.50;5021981;28;20053;-68
2022/12/14 06:43:24;;;;;;;31.17;13.57;;;;;;;-2.31;100.00;99844.59;5028953;28;20501;-71
2022/12/14 06:45:51;;;;;;;28.33;11.75;;;;;;;-2.31;100.00;99841.88;5028605;28;20059;-70
2022/12/14 06:48:18;;;;;;;29.75;11.68;;;;;;;-2.33;100.00;99844.91;5029886;28;20505;-70
2022/12/14 06:50:44;;;;;;;30.98;12.02;;;;;;;-2.33;100.00;99847.63;5032005;28;20046;-71
2022/12/14 06:53:14;;;;;;;28.00;11.80;;;;;;;-2.34;100.00;99845.25;5031404;28;20042;-70
2022/12/14 06:55:40;;;;;;;26.75;11.95;;;;;;;-2.28;100.00;99855.56;5028826;28;20033;-69
2022/12/14 06:58:12;;;;;;;36.95;14.55;;;;;;;-2.29;100.00;99855.91;5029139;28;20045;-70
2022/12/14 07:00:38;;;;;;;41.17;17.65;;;;;;;-2.27;100.00;99854.44;5029160;28;20054;-68
2022/12/14 07:03:05;;;;;;;36.35;14.65;;;;;;;-2.28;100.00;99858.28;5028948;28;20421;-71
2022/12/14 07:05:32;;;;;;;32.25;15.57;;;;;;;-2.28;100.00;99857.47;5034163;28;20052;-73
2022/12/14 07:07:58;;;;;;;31.08;12.85;;;;;;;-2.29;100.00;99862.13;5028716;28;20045;-72
2022/12/14 07:10:25;;;;;;;28.50;12.40;;;;;;;-2.30;100.00;99854.31;5033017;28;20050;-72
2022/12/14 07:12:51;;;;;;;31.13;13.77;;;;;;;-2.28;100.00;99857.47;5030708;28;20107;-70
2022/12/14 07:15:18;;;;;;;33.05;15.20;;;;;;;-2.25;100.00;99856.81;5027154;28;20085;-71
2022/12/14 07:17:45;;;;;;;32.22;14.88;;;;;;;-2.25;100.00;99860.31;5028542;28;20425;-70
2022/12/14 07:20:11;;;;;;;33.58;16.60;;;;;;;-2.26;100.00;99850.59;5030168;28;20048;-71
2022/12/14 07:22:38;;;;;;;26.85;12.77;;;;;;;-2.25;100.00;99854.91;5028059;28;20056;-70
2022/12/14 07:25:05;;;;;;;27.23;11.68;;;;;;;-2.24;100.00;99858.38;5030614;28;20056;-72
2022/12/14 07:27:31;;;;;;;25.95;11.60;;;;;;;-2.22;100.00;99864.28;5026716;28;20048;-71
2022/12/14 07:29:58;;;;;;;28.45;12.73;;;;;;;-2.22;100.00;99858.84;5026667;28;20140;-70
2022/12/14 07:32:24;;;;;;;27.60;11.75;;;;;;;-2.21;100.00;99861.25;5023317;28;20049;-69
2022/12/14 07:34:51;;;;;;;29.48;12.02;;;;;;;-2.20;100.00;99859.34;5030311;28;20056;-71
2022/12/14 07:37:17;;;;;;;29.58;13.52;;;;;;;-2.25;100.00;99868.47;5035636;28;20053;-72
2022/12/14 07:39:44;;;;;;;28.38;11.73;;;;;;;-2.23;100.00;99876.25;5029234;28;20063;-74
2022/12/14 07:42:11;;;;;;;31.52;12.48;;;;;;;-2.22;100.00;99873.22;5027933;28;20049;-72
2022/12/14 07:44:38;;;;;;;29.13;12.85;;;;;;;-2.25;100.00;99871.16;5025957;28;20463;-71
2022/12/14 07:47:04;;;;;;;31.00;13.30;;;;;;;-2.29;100.00;99862.13;5027783;28;20049;-71
2022/12/14 07:49:31;;;;;;;31.02;14.00;;;;;;;-2.25;100.00;99873.88;5026458;28;20049;-71
2022/12/14 07:51:57;;;;;;;32.67;12.70;;;;;;;-2.29;100.00;99872.97;5028983;28;20053;-72
2022/12/14 07:54:25;;;;;;;33.90;14.88;;;;;;;-2.24;100.00;99870.03;5028831;28;20057;-73
2022/12/14 07:56:51;;;;;;;30.52;12.40;;;;;;;-2.24;100.00;99875.44;5031250;28;20580;-73
2022/12/14 07:59:19;;;;;;;30.85;12.52;;;;;;;-2.24;100.00;99878.16;5030035;28;20057;-71
2022/12/14 08:01:46;;;;;;;33.65;12.90;;;;;;;-2.23;100.00;99881.66;5022706;28;20057;-72
2022/12/14 08:04:16;;;;;;;32.28;13.68;;;;;;;-2.17;100.00;99875.69;5032796;28;20476;-71
2022/12/14 08:06:45;;;;;;;34.13;13.98;;;;;;;-2.15;100.00;99875.38;5027619;28;20065;-74
2022/12/14 08:09:13;;;;;;;30.48;13.45;;;;;;;-2.20;100.00;99873.66;5028596;28;20073;-72
2022/12/14 08:11:39;;;;;;;33.70;14.20;;;;;;;-2.17;100.00;99869.50;5022323;28;20042;-72
2022/12/14 08:14:10;;;;;;;33.30;13.35;;;;;;;-2.14;100.00;99866.09;5026292;28;20053;-73
2022/12/14 08:16:36;;;;;;;30.75;13.25;;;;;;;-2.12;100.00;99864.66;5031227;28;20037;-72
2022/12/14 08:19:03;;;;;;;33.88;14.20;;;;;;;-2.13;100.00;99865.78;5025218;28;20045;-74
2022/12/14 08:21:30;;;;;;;30.65;12.80;;;;;;;-2.12;100.00;99861.97;5031926;28;20053;-72
2022/12/14 08:23:57;;;;;;;29.67;12.25;;;;;;;-2.10;100.00;99861.63;5029937;28;20064;-71
2022/12/14 08:26:25;;;;;;;26.65;11.05;;;;;;;-2.10;100.00;99864.34;5028253;28;20064;-74
2022/12/14 08:28:58;;;;;;;28.48;11.70;;;;;;;-2.08;100.00;99867.50;5026792;28;20049;-71
2022/12/14 08:31:26;;;;;;;34.05;15.98;;;;;;;-2.04;100.00;99873.81;5027704;28;20057;-71
2022/12/14 08:33:54;;;;;;;34.63;14.80;;;;;;;-2.01;100.00;99881.28;5028193;28;20049;-70
2022/12/14 08:36:26;;;;;;;31.92;13.77;;;;;;;-1.98;100.00;99881.44;5030032;28;20049;-73
2022/12/14 08:38:53;;;;;;;29.25;13.27;;;;;;;-1.94;100.00;99876.91;5027789;28;20045;-73
2022/12/14 08:41:20;;;;;;;32.28;12.65;;;;;;;-1.95;100.00;99874.53;5030204;28;20622;-73
2022/12/14 08:43:52;;;;;;;125.05;34.10;;;;;;;-1.93;100.00;99877.72;5027759;28;20056;-71
2022/12/14 08:46:20;;;;;;;52.78;17.67;;;;;;;-1.92;100.00;99877.38;5025547;28;20053;-74
2022/12/14 08:48:49;;;;;;;54.78;18.00;;;;;;;-1.90;100.00;99883.25;5027376;28;20059;-75
2022/12/14 08:51:16;;;;;;;60.97;18.77;;;;;;;-1.93;100.00;99878.50;5023020;28;20065;-72
2022/12/14 08:53:43;;;;;;;37.53;13.13;;;;;;;-1.87;100.00;99881.78;5030657;28;20128;-74
2022/12/14 08:56:12;;;;;;;27.45;11.48;;;;;;;-1.85;100.00;99887.66;5027850;28;20055;-71
2022/12/14 08:58:39;;;;;;;28.02;13.40;;;;;;;-1.83;100.00;99888.91;5027842;28;20048;-73
2022/12/14 09:01:12;;;;;;;29.35;12.90;;;;;;;-1.80;100.00;99892.88;5030791;28;20045;-73
2022/12/14 09:03:40;;;;;;;33.45;14.30;;;;;;;-1.78;100.00;99883.28;5028287;28;20087;-73
2022/12/14 09:06:09;;;;;;;32.00;14.10;;;;;;;-1.76;100.00;99886.44;5027579;28;20078;-73
2022/12/14 09:08:36;;;;;;;37.08;14.20;;;;;;;-1.72;100.00;99894.72;5026368;28;20053;-69
2022/12/14 09:11:04;;;;;;;31.63;12.93;;;;;;;-1.71;100.00;99904.44;5019981;28;20056;-69
2022/12/14 09:13:32;;;;;;;35.35;14.95;;;;;;;-1.71;100.00;99893.56;5023310;28;20049;-70
2022/12/14 09:16:05;;;;;;;30.85;13.20;;;;;;;-1.68;100.00;99901.03;5028956;28;20045;-69
2022/12/14 09:18:33;;;;;;;30.75;13.57;;;;;;;-1.67;100.00;99906.13;5027762;28;20140;-74
2022/12/14 09:21:00;;;;;;;30.05;14.07;;;;;;;-1.65;100.00;99903.84;5024780;28;20046;-71
2022/12/14 09:23:29;;;;;;;32.58;13.75;;;;;;;-1.63;100.00;99898.91;5035406;28;20049;-71
2022/12/14 09:26:07;;;;;;;31.48;13.95;;;;;;;-1.56;100.00;99904.56;5033416;28;20055;-73
2022/12/14 09:28:37;;;;;;;32.92;14.05;;;;;;;-1.53;100.00;99901.19;5029182;28;20293;-71
2022/12/14 09:31:07;;;;;;;30.58;14.25;;;;;;;-1.50;100.00;99895.09;5038194;28;20049;-74
2022/12/14 09:33:34;;;;;;;30.63;13.43;;;;;;;-1.44;100.00;99896.47;5033289;28;20099;-73
2022/12/14 09:36:10;;;;;;;33.38;13.50;;;;;;;-1.41;100.00;99892.28;5033231;28;20155;-73
2022/12/14 09:38:40;;;;;;;35.53;14.95;;;;;;;-1.42;100.00;99891.47;5031717;28;20052;-73
2022/12/14 09:41:22;;;;;;;33.72;12.82;;;;;;;-1.42;100.00;99896.91;5029344;28;20112;-72
2022/12/14 09:43:59;;;;;;;35.75;14.65;;;;;;;-1.47;100.00;99889.00;5035883;28;20062;-73
2022/12/14 09:46:30;;;;;;;35.60;14.43;;;;;;;-1.43;100.00;99889.09;5028814;28;20049;-72
2022/12/14 09:48:57;;;;;;;34.28;15.38;;;;;;;-1.44;100.00;99882.09;5027835;28;20044;-74
2022/12/14 09:51:34;;;;;;;33.55;14.45;;;;;;;-1.48;100.00;99890.09;5027241;28;20076;-72
2022/12/14 09:54:14;;;;;;;31.38;13.73;;;;;;;-1.51;100.00;99882.66;5029753;28;20049;-73
2022/12/14 09:56:42;;;;;;;35.80;14.45;;;;;;;-1.50;100.00;99873.38;5002689;28;20051;-74
2022/12/14 09:59:16;;;;;;;30.15;14.35;;;;;;;-1.52;100.00;99881.06;5011699;28;20064;-76
2022/12/14 10:01:47;;;;;;;35.53;17.33;;;;;;;-1.49;100.00;99883.09;5010518;28;20060;-73
2022/12/14 10:04:49;;;;;;;35.15;16.27;;;;;;;-1.50;100.00;99876.09;5011134;28;20053;-74
2022/12/14 10:07:25;;;;;;;37.92;18.05;;;;;;;-1.53;100.00;99867.84;5009157;28;20131;-77
2022/12/14 10:10:16;;;;;;;44.22;19.23;;;;;;;-1.45;100.00;99880.53;5010960;28;20049;-73
2022/12/14 10:13:02;;;;;;;33.90;15.63;;;;;;;-1.38;100.00;99878.81;5010599;28;20056;-75
2022/12/14 10:15:49;;;;;;;;;;;;;;;-1.34;100.00;99874.31;5006669;28;20056;-71
2022/12/14 10:18:24;;;;;;;34.65;15.45;;;;;;;-1.27;100.00;99874.53;5002196;28;21917;-74
2022/12/14 10:21:18;;;;;;;34.30;16.33;;;;;;;-1.20;100.00;99876.69;5002862;28;20535;-74
2022/12/14 10:23:55;;;;;;;36.03;15.77;;;;;;;-1.17;100.00;99868.66;5002079;28;20056;-76
2022/12/14 10:26:25;;;;;;;37.10;15.75;;;;;;;-1.11;100.00;99863.78;5001630;28;20700;-75
2022/12/14 10:28:57;;;;;;;37.20;15.32;;;;;;;-1.04;100.00;99867.50;5004458;28;20191;-75
2022/12/14 10:31:46;;;;;;;32.63;17.27;;;;;;;-0.97;100.00;99865.03;5000478;28;20056;-76
2022/12/14 10:34:20;;;;;;;37.63;16.13;;;;;;;-0.86;100.00;99868.06;4999052;28;20053;-75
2022/12/14 10:36:51;;;;;;;34.65;15.63;;;;;;;-0.80;100.00;99866.69;5000863;28;20049;-76
2022/12/14 10:39:32;;;;;;;33.42;15.48;;;;;;;-0.75;100.00;99867.25;4996250;28;20053;-75
2022/12/14 10:42:11;;;;;;;32.40;15.07;;;;;;;-0.71;100.00;99868.13;4998960;28;20045;-74
2022/12/14 10:44:49;;;;;;;36.55;15.70;;;;;;;-0.72;100.00;99872.00;5000446;28;20783;-75
2022/12/14 10:47:39;;;;;;;33.60;16.33;;;;;;;-0.70;100.00;99866.22;4998712;28;20049;-76
2022/12/14 10:50:29;;;;;;;39.63;18.67;;;;;;;-0.71;100.00;99860.00;5001496;28;20060;-76
2022/12/14 10:52:57;;;;;;;36.83;15.70;;;;;;;-0.70;100.00;99855.34;5000799;28;20063;-76
2022/12/14 10:55:37;;;;;;;33.03;14.60;;;;;;;-0.72;100.00;99861.13;5002416;28;21055;-75
2022/12/14 10:58:03;;;;;;;38.22;16.40;;;;;;;-0.71;100.00;99856.50;5003419;28;20049;-77
2022/12/14 11:00:30;;;;;;;36.92;16.17;;;;;;;-0.70;100.00;99853.44;4994441;28;20050;-75
2022/12/14 11:02:57;;;;;;;35.00;16.23;;;;;;;-0.68;100.00;99851.16;4990288;28;20064;-76
2022/12/14 11:05:37;;;;;;;42.67;18.05;;;;;;;-0.76;100.00;99843.13;4991025;28;20050;-76
2022/12/14 11:08:08;;;;;;;42.15;21.10;;;;;;;-0.62;100.00;99862.56;5002559;28;20083;-77
2022/12/14 11:10:38;;;;;;;34.97;17.23;;;;;;;-0.58;100.00;99858.03;4999215;28;20057;-76
2022/12/14 11:13:07;;;;;;;40.88;15.95;;;;;;;-0.58;100.00;99850.69;5002298;28;20816;-73
2022/12/14 11:15:36;;;;;;;40.15;16.70;;;;;;;-0.58;100.00;99853.41;5001478;28;21046;-76
2022/12/14 11:18:27;;;;;;;38.00;17.08;;;;;;;-0.58;100.00;99850.69;4999615;28;20223;-75
2022/12/14 11:20:56;;;;;;;41.45;19.27;;;;;;;-0.57;100.00;99852.25;4996917;28;20111;-78
2022/12/14 11:23:34;;;;;;;41.72;19.33;;;;;;;-0.54;100.00;99856.22;4993872;28;20140;-74
2022/12/14 11:26:24;;;;;;;40.10;19.08;;;;;;;-0.52;100.00;99851.22;4992716;28;20060;-76
2022/12/14 11:28:57;;;;;;;38.67;18.58;;;;;;;-0.49;100.00;99848.63;4989583;28;20060;-77
2022/12/14 11:31:29;;;;;;;39.35;17.33;;;;;;;-0.48;100.00;99847.47;4998714;28;20054;-74
2022/12/14 11:33:58;;;;;;;36.80;16.45;;;;;;;-0.53;100.00;99842.31;5000498;28;20068;-75
2022/12/14 11:36:40;;;;;;;39.10;16.98;;;;;;;-0.54;100.00;99840.69;4997515;28;20823;-75
2022/12/14 11:39:12;;;;;;;40.45;17.00;;;;;;;-0.48;100.00;99843.97;5002880;28;20049;-74
2022/12/14 11:41:42;;;;;;;35.17;16.13;;;;;;;-0.45;100.00;99849.50;4997987;28;20055;-75